sensor_id;sensor_type;location;lat;lon;timestamp;P1;durP1;ratioP1;P2;durP2;ratioP2
77586;SDS011;66744;49.716;17.158;2023-03-20T00:01:39;27.63;;;16.40;;
77586;SDS011;66744;49.716;17.158;2023-03-20T00:04:41;25.52;;;17.67;;
77586;SDS011;66744;49.716;17.158;2023-03-20T00:07:42;28.60;;;17.52;;
77586;SDS011;66744;49.716;17.158;2023-03-20T00:10:45;26.65;;;16.90;;
77586;SDS011;66744;49.716;17.158;2023-03-20T00:13:46;34.60;;;18.20;;
77586;SDS011;66744;49.716;17.158;2023-03-20T00:16:48;31.80;;;20.10;;
77586;SDS011;66744;49.716;17.158;2023-03-20T00:19:49;29.23;;;18.25;;
77586;SDS011;66744;49.716;17.158;2023-03-20T00:22:51;33.88;;;19.45;;
77586;SDS011;66744;49.716;17.158;2023-03-20T00:25:53;30.70;;;20.35;;
77586;SDS011;66744;49.716;17.158;2023-03-20T00:28:56;37.53;;;23.23;;
77586;SDS011;66744;49.716;17.158;2023-03-20T00:31:57;43.80;;;22.00;;
77586;SDS011;66744;49.716;17.158;2023-03-20T00:34:59;37.72;;;20.45;;
77586;SDS011;66744;49.716;17.158;2023-03-20T00:38:00;48.83;;;23.17;;
77586;SDS011;66744;49.716;17.158;2023-03-20T00:41:01;48.40;;;24.58;;
77586;SDS011;66744;49.716;17.158;2023-03-20T00:44:08;46.85;;;26.10;;
77586;SDS011;66744;49.716;17.158;2023-03-20T00:47:21;37.25;;;20.55;;
77586;SDS011;66744;49.716;17.158;2023-03-20T00:50:25;36.40;;;20.67;;
77586;SDS011;66744;49.716;17.158;2023-03-20T00:53:29;47.47;;;24.35;;
77586;SDS011;66744;49.716;17.158;2023-03-20T00:56:34;59.22;;;29.80;;
77586;SDS011;66744;49.716;17.158;2023-03-20T00:59:40;63.53;;;29.65;;
77586;SDS011;66744;49.716;17.158;2023-03-20T01:03:09;63.13;;;29.83;;
77586;SDS011;66744;49.716;17.158;2023-03-20T01:06:12;41.63;;;24.88;;
77586;SDS011;66744;49.716;17.158;2023-03-20T01:09:14;37.97;;;22.85;;
77586;SDS011;66744;49.716;17.158;2023-03-20T01:12:15;34.08;;;20.85;;
77586;SDS011;66744;49.716;17.158;2023-03-20T01:15:21;37.58;;;23.95;;
77586;SDS011;66744;49.716;17.158;2023-03-20T01:18:25;40.58;;;22.65;;
77586;SDS011;66744;49.716;17.158;2023-03-20T01:21:27;32.75;;;19.77;;
77586;SDS011;66744;49.716;17.158;2023-03-20T01:24:28;34.13;;;21.77;;
77586;SDS011;66744;49.716;17.158;2023-03-20T01:27:29;40.92;;;26.10;;
77586;SDS011;66744;49.716;17.158;2023-03-20T01:30:31;34.20;;;21.13;;
77586;SDS011;66744;49.716;17.158;2023-03-20T01:33:34;40.60;;;24.42;;
77586;SDS011;66744;49.716;17.158;2023-03-20T01:36:36;34.47;;;23.00;;
77586;SDS011;66744;49.716;17.158;2023-03-20T01:39:39;37.38;;;22.92;;
77586;SDS011;66744;49.716;17.158;2023-03-20T01:42:40;43.30;;;26.73;;
77586;SDS011;66744;49.716;17.158;2023-03-20T01:49:08;37.65;;;23.08;;
77586;SDS011;66744;49.716;17.158;2023-03-20T01:52:25;39.50;;;23.88;;
77586;SDS011;66744;49.716;17.158;2023-03-20T01:55:27;35.92;;;23.05;;
77586;SDS011;66744;49.716;17.158;2023-03-20T01:58:35;30.02;;;19.15;;
77586;SDS011;66744;49.716;17.158;2023-03-20T02:01:41;36.30;;;23.85;;
77586;SDS011;66744;49.716;17.158;2023-03-20T02:04:45;32.97;;;19.85;;
77586;SDS011;66744;49.716;17.158;2023-03-20T02:08:26;39.13;;;23.15;;
77586;SDS011;66744;49.716;17.158;2023-03-20T02:11:27;42.00;;;23.83;;
77586;SDS011;66744;49.716;17.158;2023-03-20T02:14:30;43.38;;;25.25;;
77586;SDS011;66744;49.716;17.158;2023-03-20T02:17:40;42.85;;;26.38;;
77586;SDS011;66744;49.716;17.158;2023-03-20T02:38:25;33.22;;;20.92;;
77586;SDS011;66744;49.716;17.158;2023-03-20T02:41:49;31.27;;;21.45;;
77586;SDS011;66744;49.716;17.158;2023-03-20T02:48:13;34.03;;;20.10;;
77586;SDS011;66744;49.716;17.158;2023-03-20T02:54:52;36.50;;;23.80;;
77586;SDS011;66744;49.716;17.158;2023-03-20T03:01:20;35.97;;;22.50;;
77586;SDS011;66744;49.716;17.158;2023-03-20T03:04:27;37.55;;;23.33;;
77586;SDS011;66744;49.716;17.158;2023-03-20T03:07:33;37.08;;;23.17;;
77586;SDS011;66744;49.716;17.158;2023-03-20T03:10:38;34.13;;;21.98;;
77586;SDS011;66744;49.716;17.158;2023-03-20T03:13:53;34.97;;;21.65;;
77586;SDS011;66744;49.716;17.158;2023-03-20T03:16:57;39.10;;;24.50;;
77586;SDS011;66744;49.716;17.158;2023-03-20T03:20:07;37.90;;;24.30;;
77586;SDS011;66744;49.716;17.158;2023-03-20T03:23:59;30.90;;;19.77;;
77586;SDS011;66744;49.716;17.158;2023-03-20T03:26:47;28.33;;;18.98;;
77586;SDS011;66744;49.716;17.158;2023-03-20T03:29:51;33.85;;;20.38;;
77586;SDS011;66744;49.716;17.158;2023-03-20T03:39:52;38.97;;;21.77;;
77586;SDS011;66744;49.716;17.158;2023-03-20T03:43:06;31.88;;;20.85;;
77586;SDS011;66744;49.716;17.158;2023-03-20T03:46:37;34.00;;;21.13;;
77586;SDS011;66744;49.716;17.158;2023-03-20T03:49:46;37.22;;;21.08;;
77586;SDS011;66744;49.716;17.158;2023-03-20T03:52:51;37.60;;;23.83;;
77586;SDS011;66744;49.716;17.158;2023-03-20T03:55:55;30.42;;;18.80;;
77586;SDS011;66744;49.716;17.158;2023-03-20T03:59:03;31.65;;;19.38;;
77586;SDS011;66744;49.716;17.158;2023-03-20T04:02:09;36.40;;;21.33;;
77586;SDS011;66744;49.716;17.158;2023-03-20T04:05:11;38.53;;;22.05;;
77586;SDS011;66744;49.716;17.158;2023-03-20T04:08:15;32.88;;;20.10;;
77586;SDS011;66744;49.716;17.158;2023-03-20T04:11:18;32.70;;;20.75;;
77586;SDS011;66744;49.716;17.158;2023-03-20T04:14:22;33.03;;;20.90;;
77586;SDS011;66744;49.716;17.158;2023-03-20T04:17:23;29.15;;;19.98;;
77586;SDS011;66744;49.716;17.158;2023-03-20T04:20:24;35.45;;;20.75;;
77586;SDS011;66744;49.716;17.158;2023-03-20T04:23:26;38.05;;;23.58;;
77586;SDS011;66744;49.716;17.158;2023-03-20T04:26:27;36.25;;;21.60;;
77586;SDS011;66744;49.716;17.158;2023-03-20T04:29:29;36.60;;;21.48;;
77586;SDS011;66744;49.716;17.158;2023-03-20T04:32:50;33.47;;;22.40;;
77586;SDS011;66744;49.716;17.158;2023-03-20T04:35:59;33.92;;;20.77;;
77586;SDS011;66744;49.716;17.158;2023-03-20T04:39:00;32.30;;;20.92;;
77586;SDS011;66744;49.716;17.158;2023-03-20T04:42:03;32.20;;;20.05;;
77586;SDS011;66744;49.716;17.158;2023-03-20T04:45:06;35.25;;;21.33;;
77586;SDS011;66744;49.716;17.158;2023-03-20T04:48:11;35.63;;;20.77;;
77586;SDS011;66744;49.716;17.158;2023-03-20T04:51:12;35.80;;;20.45;;
77586;SDS011;66744;49.716;17.158;2023-03-20T04:54:19;35.83;;;23.35;;
77586;SDS011;66744;49.716;17.158;2023-03-20T04:57:21;30.48;;;20.90;;
77586;SDS011;66744;49.716;17.158;2023-03-20T05:00:22;32.50;;;21.65;;
77586;SDS011;66744;49.716;17.158;2023-03-20T05:03:24;36.95;;;24.10;;
77586;SDS011;66744;49.716;17.158;2023-03-20T05:06:27;34.15;;;23.42;;
77586;SDS011;66744;49.716;17.158;2023-03-20T05:09:29;37.88;;;23.70;;
77586;SDS011;66744;49.716;17.158;2023-03-20T05:12:35;31.20;;;20.10;;
77586;SDS011;66744;49.716;17.158;2023-03-20T05:19:12;32.83;;;19.95;;
77586;SDS011;66744;49.716;17.158;2023-03-20T05:22:26;34.17;;;21.52;;
77586;SDS011;66744;49.716;17.158;2023-03-20T05:25:43;38.30;;;24.08;;
77586;SDS011;66744;49.716;17.158;2023-03-20T05:29:03;34.17;;;21.50;;
77586;SDS011;66744;49.716;17.158;2023-03-20T05:32:32;36.67;;;24.17;;
77586;SDS011;66744;49.716;17.158;2023-03-20T05:36:02;36.72;;;23.95;;
77586;SDS011;66744;49.716;17.158;2023-03-20T05:39:17;33.00;;;23.10;;
77586;SDS011;66744;49.716;17.158;2023-03-20T05:42:39;37.45;;;24.60;;
77586;SDS011;66744;49.716;17.158;2023-03-20T05:46:04;27.58;;;19.02;;
77586;SDS011;66744;49.716;17.158;2023-03-20T05:49:05;30.80;;;20.95;;
77586;SDS011;66744;49.716;17.158;2023-03-20T05:52:29;31.58;;;18.75;;
77586;SDS011;66744;49.716;17.158;2023-03-20T05:55:40;34.17;;;22.17;;
77586;SDS011;66744;49.716;17.158;2023-03-20T05:59:02;34.88;;;19.27;;
77586;SDS011;66744;49.716;17.158;2023-03-20T06:02:13;34.55;;;21.67;;
77586;SDS011;66744;49.716;17.158;2023-03-20T06:05:21;36.15;;;21.05;;
77586;SDS011;66744;49.716;17.158;2023-03-20T06:08:26;31.17;;;20.17;;
77586;SDS011;66744;49.716;17.158;2023-03-20T06:11:29;35.20;;;20.85;;
77586;SDS011;66744;49.716;17.158;2023-03-20T06:14:30;30.67;;;19.35;;
77586;SDS011;66744;49.716;17.158;2023-03-20T06:17:35;31.80;;;19.67;;
77586;SDS011;66744;49.716;17.158;2023-03-20T06:20:37;33.22;;;21.33;;
77586;SDS011;66744;49.716;17.158;2023-03-20T06:23:39;35.53;;;22.73;;
77586;SDS011;66744;49.716;17.158;2023-03-20T06:26:40;39.30;;;22.85;;
77586;SDS011;66744;49.716;17.158;2023-03-20T06:29:45;34.17;;;21.13;;
77586;SDS011;66744;49.716;17.158;2023-03-20T06:32:51;36.63;;;23.17;;
77586;SDS011;66744;49.716;17.158;2023-03-20T06:35:54;34.35;;;21.75;;
77586;SDS011;66744;49.716;17.158;2023-03-20T06:38:56;32.08;;;21.20;;
77586;SDS011;66744;49.716;17.158;2023-03-20T06:41:58;37.17;;;25.48;;
77586;SDS011;66744;49.716;17.158;2023-03-20T06:45:00;38.50;;;25.05;;
77586;SDS011;66744;49.716;17.158;2023-03-20T06:48:30;33.60;;;22.05;;
77586;SDS011;66744;49.716;17.158;2023-03-20T06:51:32;36.45;;;23.17;;
77586;SDS011;66744;49.716;17.158;2023-03-20T06:54:33;30.48;;;21.38;;
77586;SDS011;66744;49.716;17.158;2023-03-20T06:57:35;33.92;;;23.40;;
77586;SDS011;66744;49.716;17.158;2023-03-20T07:00:36;33.38;;;21.67;;
77586;SDS011;66744;49.716;17.158;2023-03-20T07:03:39;29.48;;;18.33;;
77586;SDS011;66744;49.716;17.158;2023-03-20T07:06:42;28.25;;;19.58;;
77586;SDS011;66744;49.716;17.158;2023-03-20T07:09:44;29.25;;;20.85;;
77586;SDS011;66744;49.716;17.158;2023-03-20T07:12:46;28.52;;;17.83;;
77586;SDS011;66744;49.716;17.158;2023-03-20T07:15:48;30.90;;;19.35;;
77586;SDS011;66744;49.716;17.158;2023-03-20T07:18:55;26.92;;;17.10;;
77586;SDS011;66744;49.716;17.158;2023-03-20T07:21:57;24.42;;;17.48;;
77586;SDS011;66744;49.716;17.158;2023-03-20T07:25:04;25.75;;;19.42;;
77586;SDS011;66744;49.716;17.158;2023-03-20T07:28:06;27.45;;;18.98;;
77586;SDS011;66744;49.716;17.158;2023-03-20T07:31:15;27.33;;;18.70;;
77586;SDS011;66744;49.716;17.158;2023-03-20T07:34:20;26.65;;;18.42;;
77586;SDS011;66744;49.716;17.158;2023-03-20T07:37:21;29.10;;;21.90;;
77586;SDS011;66744;49.716;17.158;2023-03-20T07:40:32;27.67;;;19.52;;
77586;SDS011;66744;49.716;17.158;2023-03-20T07:43:38;28.20;;;20.52;;
77586;SDS011;66744;49.716;17.158;2023-03-20T07:46:54;27.88;;;20.50;;
77586;SDS011;66744;49.716;17.158;2023-03-20T07:49:57;28.73;;;20.42;;
77586;SDS011;66744;49.716;17.158;2023-03-20T07:52:58;30.08;;;20.95;;
77586;SDS011;66744;49.716;17.158;2023-03-20T07:56:00;30.42;;;18.65;;
77586;SDS011;66744;49.716;17.158;2023-03-20T07:59:01;28.90;;;20.42;;
77586;SDS011;66744;49.716;17.158;2023-03-20T08:02:03;24.13;;;18.50;;
77586;SDS011;66744;49.716;17.158;2023-03-20T08:05:04;28.02;;;19.80;;
77586;SDS011;66744;49.716;17.158;2023-03-20T08:08:06;29.05;;;19.05;;
77586;SDS011;66744;49.716;17.158;2023-03-20T08:11:07;30.42;;;21.13;;
77586;SDS011;66744;49.716;17.158;2023-03-20T08:14:08;29.23;;;21.13;;
77586;SDS011;66744;49.716;17.158;2023-03-20T08:17:09;28.33;;;20.15;;
77586;SDS011;66744;49.716;17.158;2023-03-20T08:20:11;28.58;;;19.95;;
77586;SDS011;66744;49.716;17.158;2023-03-20T08:23:15;27.85;;;19.98;;
77586;SDS011;66744;49.716;17.158;2023-03-20T08:26:16;29.92;;;21.08;;
77586;SDS011;66744;49.716;17.158;2023-03-20T08:29:18;29.58;;;22.23;;
77586;SDS011;66744;49.716;17.158;2023-03-20T08:32:19;28.30;;;21.40;;
77586;SDS011;66744;49.716;17.158;2023-03-20T08:35:21;32.10;;;20.38;;
77586;SDS011;66744;49.716;17.158;2023-03-20T08:38:23;32.20;;;22.67;;
77586;SDS011;66744;49.716;17.158;2023-03-20T08:41:24;35.58;;;23.58;;
77586;SDS011;66744;49.716;17.158;2023-03-20T08:44:26;30.85;;;23.23;;
77586;SDS011;66744;49.716;17.158;2023-03-20T08:47:27;31.33;;;23.35;;
77586;SDS011;66744;49.716;17.158;2023-03-20T08:50:29;32.50;;;24.23;;
77586;SDS011;66744;49.716;17.158;2023-03-20T08:53:30;33.50;;;24.00;;
77586;SDS011;66744;49.716;17.158;2023-03-20T08:56:31;29.58;;;24.10;;
77586;SDS011;66744;49.716;17.158;2023-03-20T08:59:33;31.63;;;22.00;;
77586;SDS011;66744;49.716;17.158;2023-03-20T09:02:34;28.08;;;21.10;;
77586;SDS011;66744;49.716;17.158;2023-03-20T09:05:36;33.55;;;24.02;;
77586;SDS011;66744;49.716;17.158;2023-03-20T09:08:37;29.77;;;22.35;;
77586;SDS011;66744;49.716;17.158;2023-03-20T09:11:38;34.58;;;24.67;;
77586;SDS011;66744;49.716;17.158;2023-03-20T09:14:40;29.92;;;23.02;;
77586;SDS011;66744;49.716;17.158;2023-03-20T09:17:41;30.08;;;21.90;;
77586;SDS011;66744;49.716;17.158;2023-03-20T09:20:42;28.38;;;21.77;;
77586;SDS011;66744;49.716;17.158;2023-03-20T09:23:45;32.00;;;20.58;;
77586;SDS011;66744;49.716;17.158;2023-03-20T09:26:47;29.48;;;20.10;;
77586;SDS011;66744;49.716;17.158;2023-03-20T09:29:49;30.30;;;20.10;;
77586;SDS011;66744;49.716;17.158;2023-03-20T09:32:50;27.30;;;19.25;;
77586;SDS011;66744;49.716;17.158;2023-03-20T09:35:52;26.83;;;19.10;;
77586;SDS011;66744;49.716;17.158;2023-03-20T09:38:53;27.63;;;19.67;;
77586;SDS011;66744;49.716;17.158;2023-03-20T09:41:54;27.25;;;18.70;;
77586;SDS011;66744;49.716;17.158;2023-03-20T09:45:04;30.48;;;20.50;;
77586;SDS011;66744;49.716;17.158;2023-03-20T09:51:49;25.05;;;17.15;;
77586;SDS011;66744;49.716;17.158;2023-03-20T09:54:55;22.80;;;15.30;;
77586;SDS011;66744;49.716;17.158;2023-03-20T09:58:02;25.25;;;17.67;;
77586;SDS011;66744;49.716;17.158;2023-03-20T10:01:09;23.73;;;16.90;;
77586;SDS011;66744;49.716;17.158;2023-03-20T10:04:13;26.30;;;16.90;;
77586;SDS011;66744;49.716;17.158;2023-03-20T10:07:14;28.98;;;16.10;;
77586;SDS011;66744;49.716;17.158;2023-03-20T10:10:18;21.55;;;16.40;;
77586;SDS011;66744;49.716;17.158;2023-03-20T10:20:24;23.00;;;18.02;;
77586;SDS011;66744;49.716;17.158;2023-03-20T10:23:41;24.48;;;17.33;;
77586;SDS011;66744;49.716;17.158;2023-03-20T10:26:56;20.00;;;14.75;;
77586;SDS011;66744;49.716;17.158;2023-03-20T10:30:19;16.75;;;13.25;;
77586;SDS011;66744;49.716;17.158;2023-03-20T10:40:37;20.70;;;13.90;;
77586;SDS011;66744;49.716;17.158;2023-03-20T10:43:41;18.70;;;12.85;;
77586;SDS011;66744;49.716;17.158;2023-03-20T10:46:46;16.17;;;12.60;;
77586;SDS011;66744;49.716;17.158;2023-03-20T10:49:53;16.33;;;13.05;;
77586;SDS011;66744;49.716;17.158;2023-03-20T10:52:58;16.83;;;13.68;;
77586;SDS011;66744;49.716;17.158;2023-03-20T10:56:05;18.38;;;12.77;;
77586;SDS011;66744;49.716;17.158;2023-03-20T10:59:21;18.88;;;11.20;;
77586;SDS011;66744;49.716;17.158;2023-03-20T11:02:24;15.60;;;13.18;;
77586;SDS011;66744;49.716;17.158;2023-03-20T11:05:29;16.95;;;13.40;;
77586;SDS011;66744;49.716;17.158;2023-03-20T11:08:34;17.42;;;13.02;;
77586;SDS011;66744;49.716;17.158;2023-03-20T11:11:39;16.60;;;12.60;;
77586;SDS011;66744;49.716;17.158;2023-03-20T11:14:44;19.88;;;12.35;;
77586;SDS011;66744;49.716;17.158;2023-03-20T11:21:00;14.80;;;11.38;;
77586;SDS011;66744;49.716;17.158;2023-03-20T11:24:02;14.15;;;11.52;;
77586;SDS011;66744;49.716;17.158;2023-03-20T11:27:05;14.85;;;11.48;;
77586;SDS011;66744;49.716;17.158;2023-03-20T11:30:10;13.40;;;10.82;;
77586;SDS011;66744;49.716;17.158;2023-03-20T11:33:18;13.57;;;11.00;;
77586;SDS011;66744;49.716;17.158;2023-03-20T11:36:20;14.95;;;10.70;;
77586;SDS011;66744;49.716;17.158;2023-03-20T11:39:26;13.50;;;10.52;;
77586;SDS011;66744;49.716;17.158;2023-03-20T11:45:37;11.95;;;10.73;;
77586;SDS011;66744;49.716;17.158;2023-03-20T11:48:42;16.05;;;11.70;;
77586;SDS011;66744;49.716;17.158;2023-03-20T11:51:45;14.15;;;12.30;;
77586;SDS011;66744;49.716;17.158;2023-03-20T11:54:50;15.20;;;12.65;;
77586;SDS011;66744;49.716;17.158;2023-03-20T11:57:55;15.23;;;11.82;;
77586;SDS011;66744;49.716;17.158;2023-03-20T12:00:59;12.48;;;11.15;;
77586;SDS011;66744;49.716;17.158;2023-03-20T12:04:06;12.40;;;11.05;;
77586;SDS011;66744;49.716;17.158;2023-03-20T12:07:16;13.35;;;10.90;;
77586;SDS011;66744;49.716;17.158;2023-03-20T12:10:23;14.07;;;11.38;;
77586;SDS011;66744;49.716;17.158;2023-03-20T12:13:34;13.35;;;10.80;;
77586;SDS011;66744;49.716;17.158;2023-03-20T12:16:39;14.07;;;11.27;;
77586;SDS011;66744;49.716;17.158;2023-03-20T12:19:42;13.93;;;10.52;;
77586;SDS011;66744;49.716;17.158;2023-03-20T12:32:19;16.52;;;12.80;;
77586;SDS011;66744;49.716;17.158;2023-03-20T12:35:31;14.27;;;12.68;;
77586;SDS011;66744;49.716;17.158;2023-03-20T12:38:36;12.75;;;10.98;;
77586;SDS011;66744;49.716;17.158;2023-03-20T12:45:43;11.50;;;10.05;;
77586;SDS011;66744;49.716;17.158;2023-03-20T12:49:13;12.60;;;8.57;;
77586;SDS011;66744;49.716;17.158;2023-03-20T12:55:38;14.65;;;12.20;;
77586;SDS011;66744;49.716;17.158;2023-03-20T13:02:39;14.52;;;11.68;;
77586;SDS011;66744;49.716;17.158;2023-03-20T13:26:28;11.73;;;8.40;;
77586;SDS011;66744;49.716;17.158;2023-03-20T13:46:44;9.00;;;8.07;;
77586;SDS011;66744;49.716;17.158;2023-03-20T13:49:52;9.30;;;8.05;;
77586;SDS011;66744;49.716;17.158;2023-03-20T13:53:01;9.93;;;7.57;;
77586;SDS011;66744;49.716;17.158;2023-03-20T13:56:21;9.13;;;7.47;;
77586;SDS011;66744;49.716;17.158;2023-03-20T14:09:29;8.32;;;6.95;;
77586;SDS011;66744;49.716;17.158;2023-03-20T14:12:32;8.93;;;6.32;;
77586;SDS011;66744;49.716;17.158;2023-03-20T14:15:34;10.48;;;6.38;;
77586;SDS011;66744;49.716;17.158;2023-03-20T14:18:38;6.55;;;5.75;;
77586;SDS011;66744;49.716;17.158;2023-03-20T14:21:48;5.97;;;5.38;;
77586;SDS011;66744;49.716;17.158;2023-03-20T14:25:15;5.75;;;5.15;;
77586;SDS011;66744;49.716;17.158;2023-03-20T14:44:28;5.35;;;4.72;;
77586;SDS011;66744;49.716;17.158;2023-03-20T14:57:36;7.28;;;4.00;;
77586;SDS011;66744;49.716;17.158;2023-03-20T15:00:44;6.10;;;3.65;;
77586;SDS011;66744;49.716;17.158;2023-03-20T15:03:48;6.40;;;4.05;;
77586;SDS011;66744;49.716;17.158;2023-03-20T15:07:14;3.83;;;3.13;;
77586;SDS011;66744;49.716;17.158;2023-03-20T15:10:19;5.00;;;3.47;;
77586;SDS011;66744;49.716;17.158;2023-03-20T15:13:20;5.18;;;3.63;;
77586;SDS011;66744;49.716;17.158;2023-03-20T15:16:27;5.00;;;4.00;;
77586;SDS011;66744;49.716;17.158;2023-03-20T15:19:30;5.20;;;4.18;;
77586;SDS011;66744;49.716;17.158;2023-03-20T15:22:52;5.40;;;4.47;;
77586;SDS011;66744;49.716;17.158;2023-03-20T15:25:58;5.40;;;4.13;;
77586;SDS011;66744;49.716;17.158;2023-03-20T15:29:02;8.05;;;4.72;;
77586;SDS011;66744;49.716;17.158;2023-03-20T15:32:08;9.88;;;4.80;;
77586;SDS011;66744;49.716;17.158;2023-03-20T15:35:12;9.20;;;4.82;;
77586;SDS011;66744;49.716;17.158;2023-03-20T15:38:17;20.65;;;6.50;;
77586;SDS011;66744;49.716;17.158;2023-03-20T15:41:24;10.95;;;6.15;;
77586;SDS011;66744;49.716;17.158;2023-03-20T15:44:37;16.73;;;6.25;;
77586;SDS011;66744;49.716;17.158;2023-03-20T15:47:41;8.65;;;5.22;;
77586;SDS011;66744;49.716;17.158;2023-03-20T15:50:43;5.55;;;4.53;;
77586;SDS011;66744;49.716;17.158;2023-03-20T15:53:48;6.22;;;4.45;;
77586;SDS011;66744;49.716;17.158;2023-03-20T15:56:50;4.32;;;3.92;;
77586;SDS011;66744;49.716;17.158;2023-03-20T15:59:54;5.85;;;3.40;;
77586;SDS011;66744;49.716;17.158;2023-03-20T16:02:56;7.07;;;4.25;;
77586;SDS011;66744;49.716;17.158;2023-03-20T16:06:00;5.88;;;4.00;;
77586;SDS011;66744;49.716;17.158;2023-03-20T16:09:05;4.40;;;4.00;;
77586;SDS011;66744;49.716;17.158;2023-03-20T16:12:08;6.78;;;4.03;;
77586;SDS011;66744;49.716;17.158;2023-03-20T16:15:16;5.68;;;3.88;;
77586;SDS011;66744;49.716;17.158;2023-03-20T16:18:19;5.38;;;3.88;;
77586;SDS011;66744;49.716;17.158;2023-03-20T16:21:22;5.00;;;4.28;;
77586;SDS011;66744;49.716;17.158;2023-03-20T16:27:33;6.60;;;3.47;;
77586;SDS011;66744;49.716;17.158;2023-03-20T16:30:36;7.43;;;4.50;;
77586;SDS011;66744;49.716;17.158;2023-03-20T16:33:38;4.70;;;4.15;;
77586;SDS011;66744;49.716;17.158;2023-03-20T16:36:40;4.05;;;3.53;;
77586;SDS011;66744;49.716;17.158;2023-03-20T16:39:41;9.05;;;4.53;;
77586;SDS011;66744;49.716;17.158;2023-03-20T16:42:43;5.45;;;4.00;;
77586;SDS011;66744;49.716;17.158;2023-03-20T16:45:51;8.48;;;4.40;;
77586;SDS011;66744;49.716;17.158;2023-03-20T16:48:56;6.80;;;5.00;;
77586;SDS011;66744;49.716;17.158;2023-03-20T16:52:14;5.45;;;4.50;;
77586;SDS011;66744;49.716;17.158;2023-03-20T16:55:18;5.65;;;4.40;;
77586;SDS011;66744;49.716;17.158;2023-03-20T16:58:26;8.23;;;4.75;;
77586;SDS011;66744;49.716;17.158;2023-03-20T17:01:29;6.25;;;4.35;;
77586;SDS011;66744;49.716;17.158;2023-03-20T17:04:34;6.55;;;5.07;;
77586;SDS011;66744;49.716;17.158;2023-03-20T17:07:40;5.68;;;3.95;;
77586;SDS011;66744;49.716;17.158;2023-03-20T17:10:42;5.13;;;4.30;;
77586;SDS011;66744;49.716;17.158;2023-03-20T17:13:48;6.18;;;4.72;;
77586;SDS011;66744;49.716;17.158;2023-03-20T17:16:50;6.10;;;4.30;;
77586;SDS011;66744;49.716;17.158;2023-03-20T17:19:54;4.72;;;3.35;;
77586;SDS011;66744;49.716;17.158;2023-03-20T17:22:55;5.05;;;4.45;;
77586;SDS011;66744;49.716;17.158;2023-03-20T17:25:57;7.65;;;4.43;;
77586;SDS011;66744;49.716;17.158;2023-03-20T17:28:58;7.03;;;4.28;;
77586;SDS011;66744;49.716;17.158;2023-03-20T17:32:00;5.97;;;4.65;;
77586;SDS011;66744;49.716;17.158;2023-03-20T17:35:01;6.38;;;3.30;;
77586;SDS011;66744;49.716;17.158;2023-03-20T17:38:03;5.65;;;4.32;;
77586;SDS011;66744;49.716;17.158;2023-03-20T17:41:04;7.90;;;4.53;;
77586;SDS011;66744;49.716;17.158;2023-03-20T17:44:07;5.93;;;4.35;;
77586;SDS011;66744;49.716;17.158;2023-03-20T17:47:15;5.28;;;4.60;;
77586;SDS011;66744;49.716;17.158;2023-03-20T17:50:22;11.98;;;8.88;;
77586;SDS011;66744;49.716;17.158;2023-03-20T17:53:25;15.00;;;10.60;;
77586;SDS011;66744;49.716;17.158;2023-03-20T17:56:29;20.30;;;11.80;;
77586;SDS011;66744;49.716;17.158;2023-03-20T17:59:32;28.65;;;17.70;;
77586;SDS011;66744;49.716;17.158;2023-03-20T18:02:33;22.20;;;16.27;;
77586;SDS011;66744;49.716;17.158;2023-03-20T18:05:35;27.15;;;14.90;;
77586;SDS011;66744;49.716;17.158;2023-03-20T18:08:38;25.75;;;17.02;;
77586;SDS011;66744;49.716;17.158;2023-03-20T18:11:40;25.95;;;15.65;;
77586;SDS011;66744;49.716;17.158;2023-03-20T18:14:42;28.00;;;15.80;;
77586;SDS011;66744;49.716;17.158;2023-03-20T18:17:44;20.75;;;15.18;;
77586;SDS011;66744;49.716;17.158;2023-03-20T18:20:46;28.40;;;19.15;;
77586;SDS011;66744;49.716;17.158;2023-03-20T18:23:47;30.60;;;17.80;;
77586;SDS011;66744;49.716;17.158;2023-03-20T18:26:49;25.17;;;16.73;;
77586;SDS011;66744;49.716;17.158;2023-03-20T18:29:51;18.10;;;10.52;;
77586;SDS011;66744;49.716;17.158;2023-03-20T18:32:53;15.35;;;9.55;;
77586;SDS011;66744;49.716;17.158;2023-03-20T18:35:54;10.95;;;6.82;;
77586;SDS011;66744;49.716;17.158;2023-03-20T18:38:56;10.75;;;5.75;;
77586;SDS011;66744;49.716;17.158;2023-03-20T18:41:57;11.15;;;7.03;;
77586;SDS011;66744;49.716;17.158;2023-03-20T18:44:58;11.68;;;9.00;;
77586;SDS011;66744;49.716;17.158;2023-03-20T18:48:03;20.42;;;13.05;;
77586;SDS011;66744;49.716;17.158;2023-03-20T18:51:05;21.23;;;15.02;;
77586;SDS011;66744;49.716;17.158;2023-03-20T18:54:06;21.15;;;15.77;;
77586;SDS011;66744;49.716;17.158;2023-03-20T18:57:12;19.25;;;11.80;;
77586;SDS011;66744;49.716;17.158;2023-03-20T19:00:17;16.80;;;10.23;;
77586;SDS011;66744;49.716;17.158;2023-03-20T19:03:24;23.17;;;14.00;;
77586;SDS011;66744;49.716;17.158;2023-03-20T19:06:28;21.65;;;13.80;;
77586;SDS011;66744;49.716;17.158;2023-03-20T19:09:32;18.90;;;13.77;;
77586;SDS011;66744;49.716;17.158;2023-03-20T19:12:33;19.45;;;10.65;;
77586;SDS011;66744;49.716;17.158;2023-03-20T19:15:35;21.50;;;12.23;;
77586;SDS011;66744;49.716;17.158;2023-03-20T19:18:38;19.40;;;11.68;;
77586;SDS011;66744;49.716;17.158;2023-03-20T19:21:40;20.45;;;12.60;;
77586;SDS011;66744;49.716;17.158;2023-03-20T19:24:41;19.63;;;12.65;;
77586;SDS011;66744;49.716;17.158;2023-03-20T19:27:43;20.40;;;11.85;;
77586;SDS011;66744;49.716;17.158;2023-03-20T19:30:45;18.50;;;12.65;;
77586;SDS011;66744;49.716;17.158;2023-03-20T19:33:46;20.02;;;13.38;;
77586;SDS011;66744;49.716;17.158;2023-03-20T19:36:48;21.63;;;15.10;;
77586;SDS011;66744;49.716;17.158;2023-03-20T19:39:50;19.05;;;12.82;;
77586;SDS011;66744;49.716;17.158;2023-03-20T19:42:52;22.52;;;13.27;;
77586;SDS011;66744;49.716;17.158;2023-03-20T19:45:55;35.90;;;21.27;;
77586;SDS011;66744;49.716;17.158;2023-03-20T19:48:56;72.22;;;35.67;;
77586;SDS011;66744;49.716;17.158;2023-03-20T19:51:58;19.60;;;14.45;;
77586;SDS011;66744;49.716;17.158;2023-03-20T19:54:59;15.25;;;13.10;;
77586;SDS011;66744;49.716;17.158;2023-03-20T19:58:01;16.00;;;10.93;;
77586;SDS011;66744;49.716;17.158;2023-03-20T20:01:02;14.80;;;11.77;;
77586;SDS011;66744;49.716;17.158;2023-03-20T20:04:04;17.02;;;12.27;;
77586;SDS011;66744;49.716;17.158;2023-03-20T20:07:05;17.95;;;11.80;;
77586;SDS011;66744;49.716;17.158;2023-03-20T20:10:07;20.73;;;12.20;;
77586;SDS011;66744;49.716;17.158;2023-03-20T20:13:13;25.13;;;15.93;;
77586;SDS011;66744;49.716;17.158;2023-03-20T20:16:19;22.95;;;16.55;;
77586;SDS011;66744;49.716;17.158;2023-03-20T20:19:20;20.63;;;15.55;;
77586;SDS011;66744;49.716;17.158;2023-03-20T20:22:21;27.55;;;17.67;;
77586;SDS011;66744;49.716;17.158;2023-03-20T20:25:23;30.30;;;21.90;;
77586;SDS011;66744;49.716;17.158;2023-03-20T20:28:24;36.20;;;23.92;;
77586;SDS011;66744;49.716;17.158;2023-03-20T20:31:30;37.97;;;26.00;;
77586;SDS011;66744;49.716;17.158;2023-03-20T20:34:32;40.38;;;23.80;;
77586;SDS011;66744;49.716;17.158;2023-03-20T20:37:34;35.88;;;23.88;;